Time;durP1;ratioP1;P1;durP2;ratioP2;P2;SDS_P1;SDS_P2;PMS_P1;PMS_P2;Temp;Humidity;BMP_temperature;BMP_pressure;BME280_temperature;BME280_humidity;BME280_pressure;Samples;Min_cycle;Max_cycle;Signal;HPM_P1;HPM_P2
2022/04/28 00:00:48;;;;;;;9.05;6.22;;;7.70;74.40;;;;;;4975880;28;20025;-74
2022/04/28 00:03:15;;;;;;;10.57;7.30;;;7.70;74.30;;;;;;4982659;28;20050;-74
2022/04/28 00:05:41;;;;;;;11.57;7.32;;;7.60;74.80;;;;;;4976674;28;20389;-74
2022/04/28 00:08:08;;;;;;;12.60;8.40;;;7.50;74.10;;;;;;4976552;28;20037;-74
2022/04/28 00:10:34;;;;;;;11.05;8.50;;;7.50;74.00;;;;;;4975565;28;20023;-74
2022/04/28 00:13:00;;;;;;;11.80;7.90;;;7.30;74.00;;;;;;4975497;28;20027;-74
2022/04/28 00:15:30;;;;;;;9.68;7.15;;;7.30;74.20;;;;;;4974803;28;20027;-74
2022/04/28 00:17:56;;;;;;;12.00;8.65;;;7.30;74.60;;;;;;4990275;28;20046;-74
2022/04/28 00:20:22;;;;;;;10.75;8.43;;;7.20;74.90;;;;;;4975420;28;20477;-74
2022/04/28 00:22:48;;;;;;;10.88;7.95;;;7.30;75.00;;;;;;4975304;28;20106;-74
2022/04/28 00:25:14;;;;;;;12.30;8.40;;;7.20;74.80;;;;;;4975341;28;20036;-74
2022/04/28 00:27:39;;;;;;;11.45;8.25;;;7.20;74.80;;;;;;4975088;28;20027;-75
2022/04/28 00:30:06;;;;;;;10.20;6.57;;;7.20;74.80;;;;;;4975201;28;20030;-74
2022/04/28 00:32:32;;;;;;;9.18;6.57;;;7.20;74.70;;;;;;4973823;28;20023;-74
2022/04/28 00:34:58;;;;;;;9.25;6.85;;;7.20;74.70;;;;;;4975069;28;20470;-75
2022/04/28 00:37:23;;;;;;;10.55;7.65;;;7.20;74.90;;;;;;4974817;28;20055;-75
2022/04/28 00:39:50;;;;;;;11.00;6.93;;;7.10;74.90;;;;;;4975921;28;20110;-74
2022/04/28 00:42:18;;;;;;;11.00;7.53;;;7.00;75.10;;;;;;4974497;28;20157;-75
2022/04/28 00:44:44;;;;;;;9.57;7.05;;;6.90;75.70;;;;;;4974867;28;20049;-74
2022/04/28 00:47:11;;;;;;;10.38;7.55;;;6.90;75.90;;;;;;4974873;28;20081;-74
2022/04/28 00:52:21;;;;;;;10.35;7.10;;;6.80;77.40;;;;;;4975113;28;20071;-74
2022/04/28 00:54:50;;;;;;;10.52;7.60;;;6.80;77.50;;;;;;4974720;28;20027;-74
2022/04/28 00:57:17;;;;;;;10.13;7.38;;;6.80;77.50;;;;;;4974588;28;20109;-74
2022/04/28 00:59:45;;;;;;;9.25;7.18;;;6.80;77.50;;;;;;4974609;28;20038;-74
2022/04/28 01:02:11;;;;;;;9.50;6.85;;;6.80;77.40;;;;;;4974767;28;20051;-73
2022/04/28 01:04:38;;;;;;;11.70;7.00;;;6.90;77.50;;;;;;4973456;28;20109;-75
2022/04/28 01:07:07;;;;;;;11.40;8.13;;;6.80;77.40;;;;;;4974642;28;20019;-74
2022/04/28 01:09:39;;;;;;;14.00;8.15;;;6.80;77.40;;;;;;4974758;28;20429;-75
2022/04/28 01:12:10;;;;;;;9.27;6.82;;;6.70;77.30;;;;;;4974782;28;20077;-74
2022/04/28 01:14:36;;;;;;;13.77;6.78;;;6.70;77.70;;;;;;4976798;28;20029;-74
2022/04/28 01:17:02;;;;;;;9.43;7.05;;;6.70;77.40;;;;;;4995504;28;20027;-75
2022/04/28 01:19:28;;;;;;;9.82;6.80;;;6.70;77.20;;;;;;4980785;28;20031;-75
2022/04/28 01:21:55;;;;;;;10.60;7.22;;;6.70;76.80;;;;;;4980701;28;20469;-75
2022/04/28 01:24:20;;;;;;;10.27;7.68;;;6.60;76.30;;;;;;4979753;28;20035;-75
2022/04/28 01:26:48;;;;;;;9.45;7.00;;;6.60;76.20;;;;;;4973875;28;20030;-74
2022/04/28 01:29:13;;;;;;;14.90;8.68;;;6.50;76.20;;;;;;4974346;28;20516;-75
2022/04/28 01:31:39;;;;;;;10.20;7.25;;;6.50;76.30;;;;;;4974156;28;20062;-75
2022/04/28 01:34:04;;;;;;;10.57;7.72;;;6.40;76.40;;;;;;4974442;28;20030;-75
2022/04/28 01:36:31;;;;;;;10.65;7.35;;;6.40;76.70;;;;;;4974071;28;20397;-75
2022/04/28 01:38:57;;;;;;;10.90;6.80;;;6.30;76.80;;;;;;4974215;28;20525;-75
2022/04/28 01:41:23;;;;;;;12.85;8.38;;;6.30;76.90;;;;;;4974219;28;20114;-75
2022/04/28 01:43:48;;;;;;;9.07;7.22;;;6.30;77.30;;;;;;4974132;28;20122;-75
2022/04/28 01:46:14;;;;;;;11.15;6.60;;;6.30;77.30;;;;;;4974151;28;20070;-75
2022/04/28 01:48:40;;;;;;;10.98;7.10;;;6.40;77.30;;;;;;4974104;28;20066;-75
2022/04/28 01:56:34;;;;;;;10.50;8.13;;;6.30;76.80;;;;;;4974069;28;20114;-74
2022/04/28 01:58:59;;;;;;;10.07;7.72;;;6.30;76.40;;;;;;4974011;28;20059;-74
2022/04/28 02:01:25;;;;;;;11.52;8.45;;;6.20;76.80;;;;;;4988886;28;20019;-74
2022/04/28 02:03:50;;;;;;;11.70;7.72;;;6.10;76.80;;;;;;4973876;28;20031;-75
2022/04/28 02:06:17;;;;;;;12.57;8.15;;;6.10;76.90;;;;;;4973904;28;20439;-75
2022/04/28 02:08:45;;;;;;;11.90;8.10;;;6.10;76.90;;;;;;4974018;28;20034;-75
2022/04/28 02:11:10;;;;;;;11.90;7.93;;;6.10;76.70;;;;;;4974083;28;20023;-75
2022/04/28 02:13:36;;;;;;;11.73;8.40;;;6.10;76.70;;;;;;4974057;28;20019;-74
2022/04/28 02:16:02;;;;;;;13.55;8.38;;;6.00;76.60;;;;;;4974076;28;20022;-73
2022/04/28 02:18:27;;;;;;;10.15;7.60;;;6.00;76.70;;;;;;4972618;28;20066;-74
2022/04/28 02:20:53;;;;;;;9.65;7.05;;;6.00;77.70;;;;;;4973946;28;20030;-74
2022/04/28 02:23:18;;;;;;;9.43;7.07;;;6.00;76.60;;;;;;4973847;28;20034;-74
2022/04/28 02:25:44;;;;;;;9.32;7.07;;;5.90;76.40;;;;;;4973795;28;20031;-74
2022/04/28 02:28:09;;;;;;;10.05;7.00;;;5.90;76.30;;;;;;4973949;28;20062;-75
2022/04/28 02:30:35;;;;;;;11.73;7.82;;;5.90;76.40;;;;;;4973907;28;20062;-75
2022/04/28 02:33:10;;;;;;;12.73;7.95;;;5.90;77.40;;;;;;4973735;28;20055;-75
2022/04/28 02:35:39;;;;;;;10.90;7.43;;;5.80;76.60;;;;;;4973776;28;20031;-74
2022/04/28 02:38:06;;;;;;;10.77;7.72;;;5.80;76.70;;;;;;4975437;28;20094;-74
2022/04/28 02:40:32;;;;;;;9.43;7.00;;;5.70;77.10;;;;;;4977529;28;20026;-74
2022/04/28 02:42:59;;;;;;;9.70;7.30;;;5.70;77.20;;;;;;4975897;28;20448;-74
2022/04/28 02:45:25;;;;;;;13.90;8.77;;;5.60;77.10;;;;;;4978432;28;20122;-74
2022/04/28 02:47:51;;;;;;;12.20;8.15;;;5.70;77.20;;;;;;4977101;28;20147;-74
2022/04/28 02:50:17;;;;;;;15.68;8.63;;;5.60;77.40;;;;;;4977894;28;20105;-75
2022/04/28 02:52:42;;;;;;;11.75;7.95;;;5.60;77.30;;;;;;4976781;28;20130;-74
2022/04/28 02:55:09;;;;;;;9.52;7.45;;;5.60;77.50;;;;;;4976998;28;20473;-73
2022/04/28 02:57:35;;;;;;;14.05;8.32;;;5.60;77.60;;;;;;4976892;28;20026;-74
2022/04/28 03:00:04;;;;;;;11.68;8.82;;;5.60;77.40;;;;;;4977007;28;20081;-75
2022/04/28 03:02:30;;;;;;;15.98;10.02;;;5.50;77.10;;;;;;4975582;28;20065;-74
2022/04/28 03:04:56;;;;;;;11.48;8.70;;;5.50;77.20;;;;;;4976890;28;20022;-73
2022/04/28 03:12:50;;;;;;;14.80;9.60;;;5.50;77.10;;;;;;4976761;28;20105;-74
2022/04/28 03:15:16;;;;;;;15.52;10.68;;;5.40;77.10;;;;;;4976659;28;20470;-74
2022/04/28 03:17:41;;;;;;;15.63;9.68;;;5.40;77.30;;;;;;4976676;28;20027;-73
2022/04/28 03:20:08;;;;;;;15.02;9.88;;;5.40;77.40;;;;;;4976570;28;20034;-74
2022/04/28 03:22:36;;;;;;;13.90;9.38;;;5.30;77.40;;;;;;4976376;28;20037;-74
2022/04/28 03:25:02;;;;;;;15.93;9.90;;;5.30;77.40;;;;;;4976392;28;20058;-74
2022/04/28 03:27:28;;;;;;;14.57;9.55;;;5.20;77.30;;;;;;4976378;28;20047;-74
2022/04/28 03:29:53;;;;;;;14.80;9.95;;;5.30;77.30;;;;;;4976452;28;20066;-74
2022/04/28 03:32:19;;;;;;;12.98;8.65;;;5.20;77.20;;;;;;4976437;28;20050;-74
2022/04/28 03:34:44;;;;;;;13.23;8.65;;;5.20;77.30;;;;;;4976353;28;20101;-74
2022/04/28 03:37:10;;;;;;;13.40;9.20;;;5.20;77.40;;;;;;4976722;28;20057;-73
2022/04/28 03:39:37;;;;;;;12.60;9.18;;;5.20;77.70;;;;;;4976111;28;20035;-74
2022/04/28 03:42:04;;;;;;;10.93;8.30;;;5.20;77.50;;;;;;4976244;28;20046;-74
2022/04/28 03:44:30;;;;;;;14.43;10.13;;;5.10;77.10;;;;;;4976176;28;20090;-75
2022/04/28 03:46:56;;;;;;;14.40;10.35;;;5.10;77.30;;;;;;4976353;28;20023;-74
2022/04/28 03:49:21;;;;;;;14.13;8.98;;;5.10;77.80;;;;;;4974032;28;20027;-75
2022/04/28 03:51:47;;;;;;;16.48;10.13;;;5.00;77.80;;;;;;4976076;28;20110;-74
2022/04/28 03:54:13;;;;;;;13.00;9.13;;;5.00;77.70;;;;;;4975800;28;20027;-74
2022/04/28 03:56:38;;;;;;;13.23;9.23;;;4.90;77.80;;;;;;4975767;28;20037;-74
2022/04/28 03:59:04;;;;;;;14.02;9.77;;;5.00;77.80;;;;;;4975913;28;20019;-74
2022/04/28 04:01:30;;;;;;;15.05;10.52;;;4.90;77.90;;;;;;4990851;28;20473;-74
2022/04/28 04:03:55;;;;;;;16.40;11.88;;;4.90;78.00;;;;;;4975830;28;20493;-74
2022/04/28 04:06:21;;;;;;;34.22;25.33;;;5.00;78.10;;;;;;4975678;28;20015;-74
2022/04/28 04:08:48;;;;;;;47.58;32.67;;;5.00;78.00;;;;;;4975728;28;20037;-75
2022/04/28 04:11:14;;;;;;;40.65;29.98;;;5.00;77.90;;;;;;4976368;28;20018;-75
2022/04/28 04:13:39;;;;;;;41.55;30.00;;;5.00;77.70;;;;;;4978767;28;20037;-75
2022/04/28 04:16:05;;;;;;;40.05;28.45;;;5.00;77.60;;;;;;4976656;28;20031;-75
2022/04/28 04:18:31;;;;;;;41.85;27.95;;;5.00;77.50;;;;;;4976134;28;20069;-75
2022/04/28 04:20:57;;;;;;;43.63;28.55;;;5.00;77.40;;;;;;4975818;28;20027;-76
2022/04/28 04:23:22;;;;;;;37.85;25.00;;;5.00;77.50;;;;;;4975516;28;20244;-75
2022/04/28 04:25:48;;;;;;;31.73;20.95;;;5.10;77.40;;;;;;4978236;28;20038;-75
2022/04/28 04:28:14;;;;;;;29.58;18.38;;;5.10;77.30;;;;;;4978022;28;20038;-75
2022/04/28 04:33:24;;;;;;;22.13;14.02;;;5.10;77.10;;;;;;4975831;28;20029;-75
2022/04/28 04:35:50;;;;;;;24.77;13.85;;;5.00;77.00;;;;;;4973628;28;20038;-75
2022/04/28 04:38:15;;;;;;;22.83;12.93;;;5.10;77.20;;;;;;4976285;28;20051;-75
2022/04/28 04:40:41;;;;;;;21.15;12.95;;;5.20;77.00;;;;;;4975046;28;20035;-75
2022/04/28 04:43:13;;;;;;;19.88;10.85;;;5.20;76.90;;;;;;4975585;28;20045;-75
2022/04/28 04:45:45;;;;;;;20.95;12.43;;;5.20;76.50;;;;;;4975691;28;20019;-76
2022/04/28 04:48:11;;;;;;;20.13;12.27;;;5.30;76.40;;;;;;4974858;28;20389;-76
2022/04/28 04:50:38;;;;;;;25.00;14.68;;;5.30;76.30;;;;;;4974740;28;20019;-75
2022/04/28 04:53:04;;;;;;;37.28;18.33;;;5.30;76.40;;;;;;4974696;28;20029;-74
2022/04/28 04:55:31;;;;;;;33.60;16.70;;;5.30;76.30;;;;;;4975223;28;20039;-73
2022/04/28 04:57:57;;;;;;;35.28;17.70;;;5.40;76.30;;;;;;4975316;28;20030;-74
2022/04/28 05:00:23;;;;;;;32.65;16.17;;;5.40;76.40;;;;;;4973419;28;20414;-75
2022/04/28 05:02:49;;;;;;;25.60;14.52;;;5.40;76.90;;;;;;4974383;28;20031;-75
2022/04/28 05:05:15;;;;;;;28.58;15.13;;;5.60;76.70;;;;;;4973181;28;20031;-77
2022/04/28 05:07:41;;;;;;;27.73;14.98;;;5.80;76.50;;;;;;4974709;28;20478;-77
2022/04/28 05:10:07;;;;;;;29.38;14.95;;;6.00;75.60;;;;;;4974299;28;20113;-78
2022/04/28 05:12:33;;;;;;;28.50;14.15;;;6.10;75.10;;;;;;4974245;28;20031;-78
2022/04/28 05:14:58;;;;;;;25.20;14.68;;;6.20;74.00;;;;;;4974103;28;20504;-78
2022/04/28 05:17:24;;;;;;;26.15;14.77;;;6.20;73.90;;;;;;4974142;28;20034;-76
2022/04/28 05:19:49;;;;;;;21.67;12.68;;;6.20;74.00;;;;;;4974240;28;20031;-77
2022/04/28 05:22:16;;;;;;;21.58;13.35;;;6.30;74.10;;;;;;4974575;28;20510;-77
2022/04/28 05:24:42;;;;;;;15.15;11.40;;;6.40;74.10;;;;;;4974569;28;20564;-76
2022/04/28 05:27:07;;;;;;;19.90;12.75;;;6.40;73.90;;;;;;4974731;28;20026;-78
2022/04/28 05:29:33;;;;;;;17.27;11.70;;;6.40;74.60;;;;;;4973381;28;20023;-76
2022/04/28 05:31:58;;;;;;;19.50;12.35;;;6.50;75.20;;;;;;4975364;28;20027;-77
2022/04/28 05:34:24;;;;;;;17.33;11.32;;;6.50;75.50;;;;;;4975141;28;20019;-77
2022/04/28 05:36:50;;;;;;;14.93;10.68;;;6.60;75.50;;;;;;4975097;28;20051;-76
2022/04/28 05:39:16;;;;;;;17.63;11.80;;;6.60;75.50;;;;;;4974969;28;20490;-76
2022/04/28 05:41:43;;;;;;;19.60;13.40;;;6.80;75.70;;;;;;4974569;28;20033;-76
2022/04/28 05:46:53;;;;;;;21.98;14.98;;;6.80;77.60;;;;;;4974202;28;20070;-76
2022/04/28 05:49:19;;;;;;;66.72;14.95;;;6.80;78.10;;;;;;4973841;28;20031;-76
2022/04/28 05:51:45;;;;;;;20.40;13.32;;;6.90;78.30;;;;;;4973876;28;20031;-76
2022/04/28 05:54:11;;;;;;;22.38;13.18;;;7.00;77.80;;;;;;4973993;28;20053;-76
2022/04/28 05:56:38;;;;;;;19.80;12.80;;;7.20;77.30;;;;;;4972808;28;20389;-75
2022/04/28 05:59:03;;;;;;;23.38;13.80;;;7.20;77.00;;;;;;4974041;28;20015;-76
2022/04/28 06:01:29;;;;;;;24.63;14.02;;;7.40;77.00;;;;;;4973811;28;20524;-75
2022/04/28 06:03:55;;;;;;;24.38;14.30;;;7.60;76.60;;;;;;4973651;28;20069;-75
2022/04/28 06:06:21;;;;;;;19.35;13.70;;;7.70;76.30;;;;;;4973850;28;20050;-75
2022/04/28 06:08:46;;;;;;;23.75;14.43;;;7.80;76.20;;;;;;4973786;28;20422;-76
2022/04/28 06:11:12;;;;;;;26.85;15.60;;;8.00;76.00;;;;;;4972563;28;20029;-75
2022/04/28 06:13:38;;;;;;;20.73;13.68;;;7.90;77.00;;;;;;4976355;28;20067;-76
2022/04/28 06:16:04;;;;;;;21.48;14.68;;;8.00;77.30;;;;;;4977698;28;20027;-76
2022/04/28 06:18:30;;;;;;;21.20;15.25;;;8.10;76.80;;;;;;4977607;28;20069;-75
2022/04/28 06:20:56;;;;;;;19.98;14.95;;;8.20;76.50;;;;;;4977137;28;20455;-75
2022/04/28 06:23:22;;;;;;;20.48;14.25;;;8.30;76.50;;;;;;4976156;28;20138;-74
2022/04/28 06:25:48;;;;;;;22.77;14.95;;;8.40;76.40;;;;;;4977354;28;20413;-75
2022/04/28 06:28:13;;;;;;;23.00;15.23;;;8.60;75.80;;;;;;4977414;28;20118;-75
2022/04/28 06:30:39;;;;;;;22.15;13.45;;;8.70;75.30;;;;;;4976559;28;20027;-75
2022/04/28 06:33:05;;;;;;;19.13;13.23;;;8.80;75.10;;;;;;4977006;28;20046;-75
2022/04/28 06:35:33;;;;;;;24.13;15.40;;;9.00;74.80;;;;;;4977004;28;20065;-76
2022/04/28 06:38:00;;;;;;;24.65;15.55;;;9.20;74.50;;;;;;4976920;28;20043;-76
2022/04/28 06:40:26;;;;;;;22.00;15.70;;;9.30;74.40;;;;;;4977120;28;20421;-75
2022/04/28 06:42:52;;;;;;;23.50;15.57;;;9.20;74.70;;;;;;4976828;28;20057;-75
2022/04/28 06:45:18;;;;;;;23.77;16.65;;;9.20;74.90;;;;;;4976770;28;20033;-77
2022/04/28 06:47:43;;;;;;;22.27;15.10;;;9.20;74.90;;;;;;4977077;28;20026;-77
2022/04/28 06:50:09;;;;;;;24.95;16.40;;;9.40;74.20;;;;;;4976481;28;20466;-77
2022/04/28 06:52:39;;;;;;;36.72;11.65;;;9.50;73.70;;;;;;4976672;28;20070;-73
2022/04/28 06:55:05;;;;;;;22.33;11.95;;;9.80;83.30;;;;;;4976577;28;20031;-72
2022/04/28 06:57:31;;;;;;;20.90;11.40;;;10.40;82.80;;;;;;4976271;28;20137;-72
2022/04/28 06:59:57;;;;;;;17.73;10.98;;;10.90;78.90;;;;;;4976652;28;20031;-72
2022/04/28 07:02:23;;;;;;;21.00;12.07;;;11.30;73.10;;;;;;4976433;28;20150;-72
2022/04/28 07:04:48;;;;;;;14.10;10.45;;;11.70;69.20;;;;;;4976408;28;20035;-73
2022/04/28 07:07:14;;;;;;;22.48;10.52;;;12.00;67.40;;;;;;4976525;28;20405;-72
2022/04/28 07:09:40;;;;;;;19.08;9.95;;;12.20;64.10;;;;;;4976563;28;20031;-72
2022/04/28 07:12:06;;;;;;;17.77;9.75;;;12.30;60.90;;;;;;4976657;28;20029;-72
2022/04/28 07:14:34;;;;;;;17.45;8.63;;;12.40;61.00;;;;;;4976514;28;20114;-72
2022/04/28 07:16:59;;;;;;;14.43;7.32;;;12.70;62.10;;;;;;4976365;28;20077;-72
2022/04/28 07:19:25;;;;;;;11.88;7.93;;;12.90;60.30;;;;;;4976377;28;20027;-72
2022/04/28 07:21:51;;;;;;;12.55;6.55;;;13.00;57.70;;;;;;4976423;28;20106;-73
2022/04/28 07:24:17;;;;;;;11.60;6.00;;;13.20;58.20;;;;;;4974963;28;20031;-77
2022/04/28 07:26:43;;;;;;;11.98;6.07;;;13.30;54.10;;;;;;4976420;28;20042;-78
2022/04/28 07:29:08;;;;;;;8.63;5.53;;;13.20;54.00;;;;;;4975295;28;20023;-77
2022/04/28 07:31:34;;;;;;;10.25;6.15;;;13.20;54.40;;;;;;4976582;28;20038;-78
2022/04/28 07:33:59;;;;;;;5.85;4.88;;;13.10;53.40;;;;;;4976117;28;20042;-76
2022/04/28 07:36:25;;;;;;;7.03;5.47;;;13.20;54.20;;;;;;4975875;28;20034;-77
2022/04/28 07:38:51;;;;;;;6.65;5.47;;;13.20;54.30;;;;;;4976147;28;20038;-78
2022/04/28 07:41:17;;;;;;;6.53;4.55;;;13.30;53.10;;;;;;4976109;28;20019;-78
2022/04/28 07:43:42;;;;;;;7.10;5.07;;;13.30;53.00;;;;;;4975928;28;20050;-78
2022/04/28 07:46:08;;;;;;;6.18;5.05;;;13.30;52.20;;;;;;4976062;28;20050;-78
2022/04/28 07:48:34;;;;;;;7.82;4.93;;;13.30;51.80;;;;;;4976170;28;20148;-78
2022/04/28 07:50:59;;;;;;;6.53;5.05;;;13.30;51.40;;;;;;4976132;28;20030;-75
2022/04/28 07:53:26;;;;;;;7.35;5.35;;;13.40;51.10;;;;;;4975774;28;20469;-77
2022/04/28 07:58:39;;;;;;;8.48;5.18;;;13.40;49.50;;;;;;4976161;28;20065;-79
2022/04/28 08:01:05;;;;;;;6.65;4.45;;;13.40;50.10;;;;;;4975979;28;20027;-78
2022/04/28 08:03:31;;;;;;;7.07;4.30;;;13.50;49.20;;;;;;4975393;28;20026;-78
2022/04/28 08:05:57;;;;;;;5.72;4.00;;;13.50;48.20;;;;;;4975647;28;20034;-78
2022/04/28 08:08:23;;;;;;;4.70;3.70;;;13.50;48.30;;;;;;4975472;28;20124;-79
2022/04/28 08:10:50;;;;;;;5.00;3.72;;;13.60;47.20;;;;;;4975305;28;20034;-78
2022/04/28 08:13:16;;;;;;;6.63;3.88;;;13.60;46.60;;;;;;4975503;28;20110;-78
2022/04/28 08:15:42;;;;;;;6.07;4.03;;;13.70;45.80;;;;;;4975227;28;20058;-78
2022/04/28 08:18:08;;;;;;;4.80;3.47;;;13.70;43.90;;;;;;4975207;28;20026;-78
2022/04/28 08:20:33;;;;;;;5.93;3.70;;;13.70;44.30;;;;;;4974814;28;20031;-77
2022/04/28 08:22:59;;;;;;;5.90;3.60;;;13.80;44.80;;;;;;4974578;28;20023;-77
2022/04/28 08:25:24;;;;;;;4.53;3.22;;;13.90;45.20;;;;;;4974978;28;20027;-78
2022/04/28 08:27:50;;;;;;;4.57;3.63;;;14.00;45.00;;;;;;4974795;28;20034;-76
2022/04/28 08:30:15;;;;;;;7.68;3.17;;;14.00;44.50;;;;;;4975024;28;20022;-77
2022/04/28 08:32:41;;;;;;;4.80;3.55;;;14.20;43.90;;;;;;4974486;28;20026;-77
2022/04/28 08:35:07;;;;;;;4.88;3.47;;;14.20;43.50;;;;;;4974396;28;20162;-77
2022/04/28 08:37:33;;;;;;;5.00;3.15;;;14.20;43.10;;;;;;4974367;28;20051;-77
2022/04/28 08:39:59;;;;;;;4.35;3.50;;;14.30;42.80;;;;;;4975088;28;20086;-77
2022/04/28 08:42:26;;;;;;;5.22;3.50;;;14.40;42.90;;;;;;4974588;28;20030;-77
2022/04/28 08:44:55;;;;;;;7.90;4.30;;;14.50;42.20;;;;;;4975033;28;20042;-77
2022/04/28 08:47:21;;;;;;;5.18;3.35;;;14.50;40.40;;;;;;4974725;28;20389;-77
2022/04/28 08:49:49;;;;;;;5.72;3.30;;;14.60;41.20;;;;;;4989804;28;20030;-77
2022/04/28 08:52:18;;;;;;;5.65;3.35;;;14.60;41.10;;;;;;4974698;28;20385;-75
2022/04/28 08:54:45;;;;;;;4.93;3.67;;;14.60;40.70;;;;;;4974571;28;20367;-77
2022/04/28 08:57:13;;;;;;;7.53;3.70;;;14.70;38.40;;;;;;4974950;28;20026;-76
2022/04/28 08:59:39;;;;;;;6.68;3.42;;;14.60;36.40;;;;;;4975022;28;20026;-77
2022/04/28 09:02:05;;;;;;;3.42;2.70;;;14.60;38.40;;;;;;4975149;28;20402;-77
2022/04/28 09:04:31;;;;;;;4.97;3.22;;;14.70;37.40;;;;;;4979565;28;20125;-77
2022/04/28 09:06:57;;;;;;;3.10;2.78;;;14.70;36.40;;;;;;4979498;28;20097;-77
2022/04/28 09:09:26;;;;;;;5.75;2.83;;;14.80;36.30;;;;;;4979995;28;20094;-77
2022/04/28 09:11:53;;;;;;;5.35;3.30;;;14.80;36.20;;;;;;4980579;28;20027;-77
2022/04/28 09:14:22;;;;;;;3.70;3.22;;;14.90;37.10;;;;;;4978307;28;20027;-77
2022/04/28 09:16:56;;;;;;;4.85;2.83;;;15.00;36.80;;;;;;4978250;28;20031;-77
2022/04/28 09:19:25;;;;;;;7.45;3.28;;;15.10;36.10;;;;;;4976940;28;20054;-75
2022/04/28 09:21:53;;;;;;;6.13;4.05;;;15.10;34.80;;;;;;4976772;28;20027;-77
2022/04/28 09:24:20;;;;;;;5.53;3.15;;;15.20;34.90;;;;;;4976453;28;20035;-78
2022/04/28 09:26:47;;;;;;;4.35;3.10;;;15.20;32.70;;;;;;4974790;28;20037;-77
2022/04/28 09:29:15;;;;;;;4.60;3.35;;;15.20;32.80;;;;;;4974447;28;20114;-76
2022/04/28 09:31:43;;;;;;;6.32;3.45;;;15.30;34.20;;;;;;4974417;28;20427;-76
2022/04/28 09:34:12;;;;;;;5.03;3.65;;;15.40;35.00;;;;;;4974584;28;20019;-78
2022/04/28 09:36:38;;;;;;;6.70;3.28;;;15.50;33.70;;;;;;4973147;28;20018;-77
2022/04/28 09:39:11;;;;;;;5.65;3.22;;;15.60;33.20;;;;;;4975063;28;20039;-79
2022/04/28 09:44:23;;;;;;;7.18;3.83;;;15.80;32.30;;;;;;4996034;28;20074;-78
2022/04/28 09:46:50;;;;;;;5.88;3.35;;;16.00;31.60;;;;;;4996258;28;20031;-77
2022/04/28 09:49:21;;;;;;;6.63;3.50;;;16.00;31.90;;;;;;5001310;28;20027;-79
2022/04/28 09:51:47;;;;;;;3.53;2.80;;;16.10;32.50;;;;;;5000205;28;20022;-77
2022/04/28 09:54:17;;;;;;;5.90;3.55;;;16.20;33.30;;;;;;4999884;28;20031;-78
2022/04/28 09:56:44;;;;;;;7.80;3.65;;;16.30;33.00;;;;;;5000056;28;20019;-79
2022/04/28 09:59:12;;;;;;;5.13;3.00;;;16.30;32.50;;;;;;5000086;28;20030;-77
2022/04/28 10:01:39;;;;;;;4.65;2.90;;;16.40;31.60;;;;;;4989563;28;20022;-78
2022/04/28 10:04:06;;;;;;;6.63;3.42;;;16.50;31.70;;;;;;4983038;28;20035;-79
2022/04/28 10:06:33;;;;;;;5.53;3.30;;;16.70;31.50;;;;;;4983978;28;20041;-75
2022/04/28 10:09:02;;;;;;;5.45;3.33;;;16.80;30.60;;;;;;4979383;28;20366;-78
2022/04/28 10:11:28;;;;;;;3.60;2.67;;;16.70;29.70;;;;;;4982465;28;20023;-79
2022/04/28 10:13:55;;;;;;;5.45;2.92;;;16.70;30.30;;;;;;4979863;28;20397;-78
2022/04/28 10:16:24;;;;;;;5.68;2.95;;;16.90;30.60;;;;;;4978746;28;20023;-78
2022/04/28 10:18:55;;;;;;;5.65;3.22;;;17.10;30.60;;;;;;4977861;28;20151;-78
2022/04/28 10:21:29;;;;;;;6.80;3.63;;;16.90;29.50;;;;;;4977668;28;20037;-78
2022/04/28 10:32:55;;;;;;;5.28;3.47;;;17.50;31.40;;;;;;4977418;28;20131;-79
2022/04/28 10:35:45;;;;;;;6.07;3.60;;;17.70;30.10;;;;;;4977291;28;20065;-78
2022/04/28 10:38:24;;;;;;;4.72;3.35;;;17.80;29.30;;;;;;4975678;28;20050;-78
2022/04/28 10:41:03;;;;;;;4.97;3.28;;;17.50;27.10;;;;;;4977297;28;20062;-77
2022/04/28 10:43:40;;;;;;;4.82;3.05;;;17.30;27.30;;;;;;4976671;28;20113;-74
2022/04/28 10:46:08;;;;;;;3.97;3.00;;;17.20;27.00;;;;;;4976680;28;20102;-75
2022/04/28 10:48:38;;;;;;;4.20;2.67;;;17.20;28.10;;;;;;4977021;28;20038;-75
2022/04/28 10:51:20;;;;;;;10.52;4.65;;;17.50;30.40;;;;;;4976570;28;20106;-74
2022/04/28 10:54:01;;;;;;;6.38;3.42;;;17.80;30.70;;;;;;4976281;28;20027;-75
2022/04/28 10:56:28;;;;;;;6.13;3.00;;;17.90;30.40;;;;;;4976258;28;20051;-75
2022/04/28 10:59:02;;;;;;;5.35;3.17;;;18.20;31.20;;;;;;4976290;28;20025;-76
2022/04/28 11:01:33;;;;;;;4.90;3.05;;;18.50;29.40;;;;;;4976482;28;20014;-76
2022/04/28 11:04:02;;;;;;;3.88;3.17;;;18.70;27.90;;;;;;4976540;28;20035;-76
2022/04/28 11:06:32;;;;;;;4.88;3.30;;;18.80;27.10;;;;;;4976662;28;20030;-76
2022/04/28 11:09:03;;;;;;;6.20;3.90;;;18.90;27.40;;;;;;4976450;28;20507;-76
2022/04/28 11:11:46;;;;;;;3.75;3.30;;;18.90;27.40;;;;;;4976395;28;20038;-77
2022/04/28 11:14:12;;;;;;;5.43;3.25;;;19.10;27.20;;;;;;4976359;28;20030;-75
2022/04/28 11:16:41;;;;;;;4.72;3.15;;;19.20;26.60;;;;;;4976369;28;20031;-77
2022/04/28 11:19:08;;;;;;;3.38;2.55;;;19.30;27.30;;;;;;4974549;28;20038;-78
2022/04/28 11:21:42;;;;;;;4.38;2.65;;;19.50;27.80;;;;;;4973657;28;20097;-78
2022/04/28 11:24:08;;;;;;;4.30;3.03;;;19.80;27.50;;;;;;4976093;28;20035;-78
2022/04/28 11:26:36;;;;;;;7.10;3.13;;;19.90;25.20;;;;;;4976274;28;20110;-77
2022/04/28 11:29:09;;;;;;;3.80;3.17;;;19.60;24.80;;;;;;4976194;28;20110;-78
2022/04/28 11:31:34;;;;;;;4.80;3.15;;;19.60;25.30;;;;;;4974881;28;20026;-78
2022/04/28 11:34:05;;;;;;;8.80;3.00;;;19.70;25.60;;;;;;4976250;28;20039;-78
2022/04/28 11:36:30;;;;;;;4.90;3.00;;;19.80;26.00;;;;;;4976128;28;20050;-79
2022/04/28 11:38:59;;;;;;;3.60;2.60;;;19.80;24.50;;;;;;4976224;28;20043;-77
2022/04/28 11:41:33;;;;;;;5.82;3.70;;;20.10;25.20;;;;;;4975953;28;20053;-78
2022/04/28 11:44:19;;;;;;;3.42;2.90;;;20.10;24.30;;;;;;4976404;28;20035;-78
2022/04/28 11:46:44;;;;;;;6.25;3.30;;;19.90;23.20;;;;;;4976103;28;20061;-78
2022/04/28 11:49:10;;;;;;;5.65;3.38;;;20.00;25.10;;;;;;4974608;28;20442;-77
2022/04/28 11:51:37;;;;;;;5.40;3.78;;;20.00;24.10;;;;;;4975711;28;20027;-78
2022/04/28 11:54:04;;;;;;;3.72;2.58;;;19.70;23.60;;;;;;4975757;28;20385;-77
2022/04/28 11:56:33;;;;;;;7.15;2.92;;;19.70;24.70;;;;;;4976078;28;20034;-78
2022/04/28 11:59:02;;;;;;;6.13;2.80;;;20.00;26.00;;;;;;4975840;28;20486;-77
2022/04/28 12:01:32;;;;;;;4.28;3.25;;;20.30;26.00;;;;;;4975789;28;20109;-77
2022/04/28 12:03:59;;;;;;;4.72;3.25;;;20.60;25.60;;;;;;4975391;28;20046;-77
2022/04/28 12:06:25;;;;;;;4.78;3.33;;;20.60;23.00;;;;;;4975581;28;20023;-77
2022/04/28 12:08:57;;;;;;;3.60;2.95;;;20.20;22.80;;;;;;4975618;28;20027;-77
2022/04/28 12:14:24;;;;;;;7.60;3.13;;;20.60;25.20;;;;;;4975535;28;20077;-78
2022/04/28 12:19:57;;;;;;;6.20;2.67;;;20.90;24.20;;;;;;4975573;28;20085;-77
2022/04/28 12:22:39;;;;;;;4.47;2.75;;;21.10;23.80;;;;;;4978211;28;20106;-78
2022/04/28 12:25:06;;;;;;;4.20;3.80;;;21.10;23.10;;;;;;4975156;28;20065;-78
2022/04/28 12:27:44;;;;;;;4.95;2.83;;;20.60;23.50;;;;;;4975188;28;20085;-79
2022/04/28 12:30:13;;;;;;;2.92;2.42;;;20.70;23.90;;;;;;4975166;28;20023;-76
2022/04/28 12:32:45;;;;;;;4.07;3.30;;;21.00;25.40;;;;;;4974606;28;20030;-75
2022/04/28 12:35:27;;;;;;;6.32;3.08;;;21.00;24.00;;;;;;4973701;28;20113;-75
2022/04/28 12:37:56;;;;;;;3.80;3.40;;;21.10;24.10;;;;;;4973637;28;20074;-75
2022/04/28 12:40:23;;;;;;;5.57;3.75;;;21.30;24.60;;;;;;4973604;28;20355;-75
2022/04/28 12:42:50;;;;;;;4.00;2.80;;;21.40;24.20;;;;;;4974751;28;20045;-75
2022/04/28 12:45:35;;;;;;;5.25;2.83;;;21.30;23.40;;;;;;4973271;28;20027;-76
2022/04/28 12:48:00;;;;;;;5.13;3.20;;;21.40;24.90;;;;;;4973173;28;20505;-74
2022/04/28 12:50:26;;;;;;;5.93;3.30;;;21.70;24.60;;;;;;4974720;28;20065;-75
2022/04/28 12:52:52;;;;;;;3.90;2.80;;;21.70;23.70;;;;;;4973023;28;20388;-75
2022/04/28 12:55:19;;;;;;;3.90;2.80;;;21.70;22.90;;;;;;4989700;28;20050;-75
2022/04/28 12:57:46;;;;;;;5.78;3.22;;;22.00;22.90;;;;;;4977326;28;20413;-75
2022/04/28 13:00:14;;;;;;;4.15;2.88;;;21.90;21.00;;;;;;4973529;28;20088;-75
2022/04/28 13:02:47;;;;;;;3.38;2.80;;;21.80;21.00;;;;;;4973044;28;20038;-75
2022/04/28 13:05:18;;;;;;;3.22;2.67;;;22.10;23.10;;;;;;4973431;28;20035;-75
2022/04/28 13:07:44;;;;;;;3.38;2.95;;;22.30;21.90;;;;;;4973296;28;20026;-75
2022/04/28 13:10:13;;;;;;;5.32;3.72;;;22.00;21.70;;;;;;4973035;28;20115;-75
2022/04/28 13:12:39;;;;;;;3.33;2.90;;;22.10;22.10;;;;;;4972899;28;20041;-75
2022/04/28 13:15:06;;;;;;;3.47;2.70;;;22.00;22.10;;;;;;4974173;28;20055;-75
2022/04/28 13:17:32;;;;;;;5.45;3.15;;;22.40;23.30;;;;;;4973015;28;20023;-75
2022/04/28 13:19:58;;;;;;;4.03;3.45;;;22.70;23.60;;;;;;4973210;28;20117;-75
2022/04/28 13:22:24;;;;;;;5.13;2.90;;;23.00;22.60;;;;;;4989130;28;20110;-75
2022/04/28 13:24:50;;;;;;;3.60;2.70;;;23.00;20.40;;;;;;4974192;28;20063;-75